sensor_id;sensor_type;location;lat;lon;timestamp;temperature;humidity
34574;DHT22;20809;49.594;8.734;2023-08-06T00:01:14;15.10;99.90
34574;DHT22;20809;49.594;8.734;2023-08-06T00:04:17;15.10;99.90
34574;DHT22;20809;49.594;8.734;2023-08-06T00:07:19;15.10;99.90
34574;DHT22;20809;49.594;8.734;2023-08-06T00:10:22;15.00;99.90
34574;DHT22;20809;49.594;8.734;2023-08-06T00:13:24;15.00;99.90
34574;DHT22;20809;49.594;8.734;2023-08-06T00:16:27;14.90;99.90
34574;DHT22;20809;49.594;8.734;2023-08-06T00:19:29;14.90;99.90
34574;DHT22;20809;49.594;8.734;2023-08-06T00:22:35;14.90;99.90
34574;DHT22;20809;49.594;8.734;2023-08-06T00:25:37;14.90;99.90
34574;DHT22;20809;49.594;8.734;2023-08-06T00:28:40;14.90;99.90
34574;DHT22;20809;49.594;8.734;2023-08-06T00:31:42;14.90;99.90
34574;DHT22;20809;49.594;8.734;2023-08-06T00:34:44;14.90;99.90
34574;DHT22;20809;49.594;8.734;2023-08-06T00:37:49;14.90;99.90
34574;DHT22;20809;49.594;8.734;2023-08-06T00:40:51;15.00;99.90
34574;DHT22;20809;49.594;8.734;2023-08-06T00:43:54;15.10;99.90
34574;DHT22;20809;49.594;8.734;2023-08-06T00:46:55;15.10;99.90
34574;DHT22;20809;49.594;8.734;2023-08-06T00:49:57;15.20;99.90
34574;DHT22;20809;49.594;8.734;2023-08-06T00:52:59;15.20;99.90
34574;DHT22;20809;49.594;8.734;2023-08-06T00:59:10;15.20;99.90
34574;DHT22;20809;49.594;8.734;2023-08-06T01:02:12;15.20;99.90
34574;DHT22;20809;49.594;8.734;2023-08-06T01:05:14;15.20;99.90
34574;DHT22;20809;49.594;8.734;2023-08-06T01:14:39;15.20;99.90
34574;DHT22;20809;49.594;8.734;2023-08-06T01:17:46;15.30;99.90
34574;DHT22;20809;49.594;8.734;2023-08-06T01:20:49;15.40;99.90
34574;DHT22;20809;49.594;8.734;2023-08-06T01:23:53;15.40;99.90
34574;DHT22;20809;49.594;8.734;2023-08-06T01:27:02;15.40;99.90
34574;DHT22;20809;49.594;8.734;2023-08-06T01:30:35;15.50;99.90
34574;DHT22;20809;49.594;8.734;2023-08-06T01:33:45;15.50;99.90
34574;DHT22;20809;49.594;8.734;2023-08-06T01:36:52;15.50;99.90
34574;DHT22;20809;49.594;8.734;2023-08-06T01:39:54;15.50;99.90
34574;DHT22;20809;49.594;8.734;2023-08-06T01:42:56;15.60;99.90
34574;DHT22;20809;49.594;8.734;2023-08-06T01:45:57;15.60;99.90
34574;DHT22;20809;49.594;8.734;2023-08-06T01:48:59;15.60;99.90
34574;DHT22;20809;49.594;8.734;2023-08-06T01:52:00;15.60;99.90
34574;DHT22;20809;49.594;8.734;2023-08-06T01:55:05;15.60;99.90
34574;DHT22;20809;49.594;8.734;2023-08-06T01:58:07;15.60;99.90
34574;DHT22;20809;49.594;8.734;2023-08-06T02:01:09;15.60;99.90
34574;DHT22;20809;49.594;8.734;2023-08-06T02:04:11;15.60;99.90
34574;DHT22;20809;49.594;8.734;2023-08-06T02:07:12;15.70;99.90
34574;DHT22;20809;49.594;8.734;2023-08-06T02:10:14;15.60;99.90
34574;DHT22;20809;49.594;8.734;2023-08-06T02:13:16;15.60;99.90
34574;DHT22;20809;49.594;8.734;2023-08-06T02:16:18;15.70;99.90
34574;DHT22;20809;49.594;8.734;2023-08-06T02:19:19;15.70;99.90
34574;DHT22;20809;49.594;8.734;2023-08-06T02:22:21;15.70;99.90
34574;DHT22;20809;49.594;8.734;2023-08-06T02:25:24;15.70;99.90
34574;DHT22;20809;49.594;8.734;2023-08-06T02:28:26;15.70;99.90
34574;DHT22;20809;49.594;8.734;2023-08-06T02:31:27;15.70;99.90
34574;DHT22;20809;49.594;8.734;2023-08-06T02:34:29;15.60;99.90
34574;DHT22;20809;49.594;8.734;2023-08-06T02:37:33;15.60;99.90
34574;DHT22;20809;49.594;8.734;2023-08-06T02:40:35;15.60;99.90
34574;DHT22;20809;49.594;8.734;2023-08-06T02:43:37;15.70;99.90
34574;DHT22;20809;49.594;8.734;2023-08-06T02:46:38;15.60;99.90
34574;DHT22;20809;49.594;8.734;2023-08-06T02:49:40;15.60;99.90
34574;DHT22;20809;49.594;8.734;2023-08-06T02:52:42;15.70;99.90
34574;DHT22;20809;49.594;8.734;2023-08-06T02:55:49;15.60;99.90
34574;DHT22;20809;49.594;8.734;2023-08-06T02:58:50;15.60;99.90
34574;DHT22;20809;49.594;8.734;2023-08-06T03:01:52;15.50;99.90
34574;DHT22;20809;49.594;8.734;2023-08-06T03:04:54;15.50;99.90
34574;DHT22;20809;49.594;8.734;2023-08-06T03:07:56;15.40;99.90
34574;DHT22;20809;49.594;8.734;2023-08-06T03:10:58;15.40;99.90
34574;DHT22;20809;49.594;8.734;2023-08-06T03:14:00;15.40;99.90
34574;DHT22;20809;49.594;8.734;2023-08-06T03:17:01;15.30;99.90
34574;DHT22;20809;49.594;8.734;2023-08-06T03:20:03;15.20;99.90
34574;DHT22;20809;49.594;8.734;2023-08-06T03:23:05;15.20;99.90
34574;DHT22;20809;49.594;8.734;2023-08-06T03:26:07;15.20;99.90
34574;DHT22;20809;49.594;8.734;2023-08-06T03:29:09;15.20;99.90
34574;DHT22;20809;49.594;8.734;2023-08-06T03:32:10;15.10;99.90
34574;DHT22;20809;49.594;8.734;2023-08-06T03:35:12;15.10;99.90
34574;DHT22;20809;49.594;8.734;2023-08-06T03:38:13;15.00;99.90
34574;DHT22;20809;49.594;8.734;2023-08-06T03:41:15;15.10;99.90
34574;DHT22;20809;49.594;8.734;2023-08-06T03:44:20;15.10;99.90
34574;DHT22;20809;49.594;8.734;2023-08-06T03:47:21;15.20;99.90
34574;DHT22;20809;49.594;8.734;2023-08-06T03:50:23;15.20;99.90
34574;DHT22;20809;49.594;8.734;2023-08-06T03:53:24;15.20;99.90
34574;DHT22;20809;49.594;8.734;2023-08-06T03:56:25;15.20;99.90
34574;DHT22;20809;49.594;8.734;2023-08-06T03:59:26;15.20;99.90
34574;DHT22;20809;49.594;8.734;2023-08-06T04:02:28;15.20;99.90
34574;DHT22;20809;49.594;8.734;2023-08-06T04:05:31;15.20;99.90
34574;DHT22;20809;49.594;8.734;2023-08-06T04:08:34;15.20;99.90
34574;DHT22;20809;49.594;8.734;2023-08-06T04:11:34;15.20;99.90
34574;DHT22;20809;49.594;8.734;2023-08-06T04:14:36;15.20;99.90
34574;DHT22;20809;49.594;8.734;2023-08-06T04:17:37;15.20;99.90
34574;DHT22;20809;49.594;8.734;2023-08-06T04:20:48;15.20;99.90
34574;DHT22;20809;49.594;8.734;2023-08-06T04:23:50;15.20;99.90
34574;DHT22;20809;49.594;8.734;2023-08-06T04:26:50;15.10;99.90
34574;DHT22;20809;49.594;8.734;2023-08-06T04:29:51;15.00;99.90
34574;DHT22;20809;49.594;8.734;2023-08-06T04:32:52;15.00;99.90
34574;DHT22;20809;49.594;8.734;2023-08-06T04:35:56;15.10;99.90
34574;DHT22;20809;49.594;8.734;2023-08-06T04:38:56;15.10;99.90
34574;DHT22;20809;49.594;8.734;2023-08-06T04:41:57;15.00;99.90
34574;DHT22;20809;49.594;8.734;2023-08-06T04:44:57;14.90;99.90
34574;DHT22;20809;49.594;8.734;2023-08-06T04:47:58;14.80;99.90
34574;DHT22;20809;49.594;8.734;2023-08-06T04:50:59;14.80;99.90
34574;DHT22;20809;49.594;8.734;2023-08-06T04:53:59;14.80;99.90
34574;DHT22;20809;49.594;8.734;2023-08-06T04:57:00;14.80;99.90
34574;DHT22;20809;49.594;8.734;2023-08-06T05:00:01;14.70;99.90
34574;DHT22;20809;49.594;8.734;2023-08-06T05:03:02;14.70;99.90
34574;DHT22;20809;49.594;8.734;2023-08-06T05:06:02;14.70;99.90
34574;DHT22;20809;49.594;8.734;2023-08-06T05:09:03;14.70;99.90
34574;DHT22;20809;49.594;8.734;2023-08-06T05:12:05;14.70;99.90
34574;DHT22;20809;49.594;8.734;2023-08-06T05:15:06;14.70;99.90
34574;DHT22;20809;49.594;8.734;2023-08-06T05:18:07;14.70;99.90
34574;DHT22;20809;49.594;8.734;2023-08-06T05:21:08;14.70;99.90
34574;DHT22;20809;49.594;8.734;2023-08-06T05:24:08;14.70;99.90
34574;DHT22;20809;49.594;8.734;2023-08-06T05:27:09;14.70;99.90
34574;DHT22;20809;49.594;8.734;2023-08-06T05:30:10;14.80;99.90
34574;DHT22;20809;49.594;8.734;2023-08-06T05:33:11;14.80;99.90
34574;DHT22;20809;49.594;8.734;2023-08-06T05:36:11;14.80;99.90
34574;DHT22;20809;49.594;8.734;2023-08-06T05:39:12;14.60;99.90
34574;DHT22;20809;49.594;8.734;2023-08-06T05:42:13;14.40;99.90
34574;DHT22;20809;49.594;8.734;2023-08-06T05:45:14;14.30;99.90
34574;DHT22;20809;49.594;8.734;2023-08-06T05:48:15;14.20;99.90
34574;DHT22;20809;49.594;8.734;2023-08-06T05:51:15;14.00;99.90
34574;DHT22;20809;49.594;8.734;2023-08-06T05:54:18;13.90;99.90
34574;DHT22;20809;49.594;8.734;2023-08-06T05:57:18;13.90;99.90
34574;DHT22;20809;49.594;8.734;2023-08-06T06:00:20;13.90;99.90
34574;DHT22;20809;49.594;8.734;2023-08-06T06:03:21;13.90;99.90
34574;DHT22;20809;49.594;8.734;2023-08-06T06:06:21;13.80;99.90
34574;DHT22;20809;49.594;8.734;2023-08-06T06:09:22;13.80;99.90
34574;DHT22;20809;49.594;8.734;2023-08-06T06:12:23;13.80;99.90
34574;DHT22;20809;49.594;8.734;2023-08-06T06:15:25;13.80;99.90
34574;DHT22;20809;49.594;8.734;2023-08-06T06:18:25;13.80;99.90
34574;DHT22;20809;49.594;8.734;2023-08-06T06:21:26;13.80;99.90
34574;DHT22;20809;49.594;8.734;2023-08-06T06:24:27;13.80;99.90
34574;DHT22;20809;49.594;8.734;2023-08-06T06:27:27;13.90;99.90
34574;DHT22;20809;49.594;8.734;2023-08-06T06:30:30;13.90;99.90
34574;DHT22;20809;49.594;8.734;2023-08-06T06:33:31;14.00;99.90
34574;DHT22;20809;49.594;8.734;2023-08-06T06:36:32;14.00;99.90
34574;DHT22;20809;49.594;8.734;2023-08-06T06:39:33;14.00;99.90
34574;DHT22;20809;49.594;8.734;2023-08-06T06:42:33;14.10;99.90
34574;DHT22;20809;49.594;8.734;2023-08-06T06:45:34;14.20;99.90
34574;DHT22;20809;49.594;8.734;2023-08-06T06:48:37;14.20;99.90
34574;DHT22;20809;49.594;8.734;2023-08-06T06:51:38;14.10;99.90
34574;DHT22;20809;49.594;8.734;2023-08-06T06:54:38;14.20;99.90
34574;DHT22;20809;49.594;8.734;2023-08-06T06:57:39;14.10;99.90
34574;DHT22;20809;49.594;8.734;2023-08-06T07:00:40;14.10;99.90
34574;DHT22;20809;49.594;8.734;2023-08-06T07:03:40;14.10;99.90
34574;DHT22;20809;49.594;8.734;2023-08-06T07:06:41;14.10;99.90
34574;DHT22;20809;49.594;8.734;2023-08-06T07:09:41;14.20;99.90
34574;DHT22;20809;49.594;8.734;2023-08-06T07:12:42;14.30;99.90
34574;DHT22;20809;49.594;8.734;2023-08-06T07:15:43;14.40;99.90
34574;DHT22;20809;49.594;8.734;2023-08-06T07:18:43;14.40;99.90
34574;DHT22;20809;49.594;8.734;2023-08-06T07:21:44;14.50;99.90
34574;DHT22;20809;49.594;8.734;2023-08-06T07:24:44;14.50;99.90
34574;DHT22;20809;49.594;8.734;2023-08-06T07:27:45;14.50;99.90
34574;DHT22;20809;49.594;8.734;2023-08-06T07:30:49;14.50;99.90
34574;DHT22;20809;49.594;8.734;2023-08-06T07:33:49;14.50;99.90
34574;DHT22;20809;49.594;8.734;2023-08-06T07:36:50;14.60;99.90
34574;DHT22;20809;49.594;8.734;2023-08-06T07:39:50;14.70;99.90
34574;DHT22;20809;49.594;8.734;2023-08-06T07:42:51;14.70;99.90
34574;DHT22;20809;49.594;8.734;2023-08-06T07:45:52;14.80;99.90
34574;DHT22;20809;49.594;8.734;2023-08-06T07:48:52;15.00;99.90
34574;DHT22;20809;49.594;8.734;2023-08-06T07:51:53;15.10;99.90
34574;DHT22;20809;49.594;8.734;2023-08-06T07:54:56;15.20;99.90
34574;DHT22;20809;49.594;8.734;2023-08-06T07:57:57;15.20;99.90
34574;DHT22;20809;49.594;8.734;2023-08-06T08:00:57;15.20;99.90
34574;DHT22;20809;49.594;8.734;2023-08-06T08:04:00;15.30;99.90
34574;DHT22;20809;49.594;8.734;2023-08-06T08:07:01;15.40;99.90
34574;DHT22;20809;49.594;8.734;2023-08-06T08:10:02;15.60;99.90
34574;DHT22;20809;49.594;8.734;2023-08-06T08:13:06;15.70;99.90
34574;DHT22;20809;49.594;8.734;2023-08-06T08:16:06;15.50;99.90
34574;DHT22;20809;49.594;8.734;2023-08-06T08:19:10;15.40;99.90
34574;DHT22;20809;49.594;8.734;2023-08-06T08:22:12;15.20;99.90
34574;DHT22;20809;49.594;8.734;2023-08-06T08:25:13;15.20;99.90
34574;DHT22;20809;49.594;8.734;2023-08-06T08:28:13;15.10;99.90
34574;DHT22;20809;49.594;8.734;2023-08-06T08:31:14;15.10;99.90
34574;DHT22;20809;49.594;8.734;2023-08-06T08:34:16;15.10;99.90
34574;DHT22;20809;49.594;8.734;2023-08-06T08:37:17;15.50;99.90
34574;DHT22;20809;49.594;8.734;2023-08-06T08:40:17;15.90;99.90
34574;DHT22;20809;49.594;8.734;2023-08-06T08:43:21;16.10;99.90
34574;DHT22;20809;49.594;8.734;2023-08-06T08:46:22;16.40;99.90
34574;DHT22;20809;49.594;8.734;2023-08-06T08:49:23;16.60;99.90
34574;DHT22;20809;49.594;8.734;2023-08-06T08:52:25;16.60;99.90
34574;DHT22;20809;49.594;8.734;2023-08-06T08:55:27;16.80;99.90
34574;DHT22;20809;49.594;8.734;2023-08-06T08:58:27;16.70;99.90
34574;DHT22;20809;49.594;8.734;2023-08-06T09:01:29;16.60;99.90
34574;DHT22;20809;49.594;8.734;2023-08-06T09:04:29;16.40;99.90
34574;DHT22;20809;49.594;8.734;2023-08-06T09:07:52;16.50;99.90
34574;DHT22;20809;49.594;8.734;2023-08-06T09:10:53;16.70;99.90
34574;DHT22;20809;49.594;8.734;2023-08-06T09:13:55;17.10;99.90
34574;DHT22;20809;49.594;8.734;2023-08-06T09:16:56;16.90;99.90
34574;DHT22;20809;49.594;8.734;2023-08-06T09:19:58;16.60;99.90
34574;DHT22;20809;49.594;8.734;2023-08-06T09:23:07;16.70;99.90
34574;DHT22;20809;49.594;8.734;2023-08-06T09:26:11;16.80;99.90
34574;DHT22;20809;49.594;8.734;2023-08-06T09:29:15;16.90;99.90
34574;DHT22;20809;49.594;8.734;2023-08-06T09:32:16;16.60;99.90
34574;DHT22;20809;49.594;8.734;2023-08-06T09:35:17;16.50;99.90
34574;DHT22;20809;49.594;8.734;2023-08-06T09:38:18;16.50;99.90
34574;DHT22;20809;49.594;8.734;2023-08-06T09:41:28;16.50;99.90
34574;DHT22;20809;49.594;8.734;2023-08-06T09:44:30;16.40;99.90
34574;DHT22;20809;49.594;8.734;2023-08-06T09:47:31;16.20;99.90
34574;DHT22;20809;49.594;8.734;2023-08-06T09:50:34;16.00;99.90
34574;DHT22;20809;49.594;8.734;2023-08-06T09:53:37;15.90;99.90
34574;DHT22;20809;49.594;8.734;2023-08-06T09:56:40;15.80;99.90
34574;DHT22;20809;49.594;8.734;2023-08-06T09:59:42;15.90;99.90
34574;DHT22;20809;49.594;8.734;2023-08-06T10:02:44;16.00;99.90
34574;DHT22;20809;49.594;8.734;2023-08-06T10:05:45;16.20;99.90
34574;DHT22;20809;49.594;8.734;2023-08-06T10:08:46;16.50;99.90
34574;DHT22;20809;49.594;8.734;2023-08-06T10:11:50;16.60;99.90
34574;DHT22;20809;49.594;8.734;2023-08-06T10:14:54;16.40;99.90
34574;DHT22;20809;49.594;8.734;2023-08-06T10:17:57;16.10;99.90
34574;DHT22;20809;49.594;8.734;2023-08-06T10:20:59;15.60;99.90
34574;DHT22;20809;49.594;8.734;2023-08-06T10:24:00;15.30;99.90
34574;DHT22;20809;49.594;8.734;2023-08-06T10:27:02;15.30;99.90
34574;DHT22;20809;49.594;8.734;2023-08-06T10:33:43;15.80;99.90
34574;DHT22;20809;49.594;8.734;2023-08-06T10:36:44;16.00;99.90
34574;DHT22;20809;49.594;8.734;2023-08-06T10:39:49;16.00;99.90
34574;DHT22;20809;49.594;8.734;2023-08-06T10:42:51;16.00;99.90
34574;DHT22;20809;49.594;8.734;2023-08-06T10:45:52;16.10;99.90
34574;DHT22;20809;49.594;8.734;2023-08-06T10:48:52;16.10;99.90
34574;DHT22;20809;49.594;8.734;2023-08-06T10:51:53;16.00;99.90
34574;DHT22;20809;49.594;8.734;2023-08-06T10:54:55;15.90;99.90
34574;DHT22;20809;49.594;8.734;2023-08-06T10:57:56;15.70;99.90
34574;DHT22;20809;49.594;8.734;2023-08-06T11:00:58;15.40;99.90
34574;DHT22;20809;49.594;8.734;2023-08-06T11:04:03;15.50;99.90
34574;DHT22;20809;49.594;8.734;2023-08-06T11:07:07;15.70;99.90
34574;DHT22;20809;49.594;8.734;2023-08-06T11:10:09;15.90;99.90
34574;DHT22;20809;49.594;8.734;2023-08-06T11:13:10;15.80;99.90
34574;DHT22;20809;49.594;8.734;2023-08-06T11:16:13;15.70;99.90
34574;DHT22;20809;49.594;8.734;2023-08-06T11:19:14;15.60;99.90
34574;DHT22;20809;49.594;8.734;2023-08-06T11:22:17;15.40;99.90
34574;DHT22;20809;49.594;8.734;2023-08-06T11:25:20;15.20;99.90
34574;DHT22;20809;49.594;8.734;2023-08-06T11:28:22;14.90;99.90
34574;DHT22;20809;49.594;8.734;2023-08-06T11:31:23;14.70;99.90
34574;DHT22;20809;49.594;8.734;2023-08-06T11:34:24;14.60;99.90
34574;DHT22;20809;49.594;8.734;2023-08-06T11:37:25;14.50;99.90
34574;DHT22;20809;49.594;8.734;2023-08-06T11:40:25;14.60;99.90
34574;DHT22;20809;49.594;8.734;2023-08-06T11:43:26;14.50;99.90
34574;DHT22;20809;49.594;8.734;2023-08-06T11:46:26;14.70;99.90
34574;DHT22;20809;49.594;8.734;2023-08-06T11:49:48;15.00;99.90
34574;DHT22;20809;49.594;8.734;2023-08-06T11:53:01;15.20;99.90
34574;DHT22;20809;49.594;8.734;2023-08-06T11:56:02;15.30;99.90
34574;DHT22;20809;49.594;8.734;2023-08-06T11:59:02;15.40;99.90
34574;DHT22;20809;49.594;8.734;2023-08-06T12:02:04;15.40;99.90
34574;DHT22;20809;49.594;8.734;2023-08-06T12:05:18;15.40;99.90
34574;DHT22;20809;49.594;8.734;2023-08-06T12:08:21;15.30;99.90
34574;DHT22;20809;49.594;8.734;2023-08-06T12:11:26;15.30;99.90
34574;DHT22;20809;49.594;8.734;2023-08-06T12:14:27;15.40;99.90
34574;DHT22;20809;49.594;8.734;2023-08-06T12:17:27;15.50;99.90
34574;DHT22;20809;49.594;8.734;2023-08-06T12:20:31;15.50;99.90
34574;DHT22;20809;49.594;8.734;2023-08-06T12:23:31;15.50;99.90
34574;DHT22;20809;49.594;8.734;2023-08-06T12:26:33;15.70;99.90
34574;DHT22;20809;49.594;8.734;2023-08-06T12:29:34;15.90;99.90
34574;DHT22;20809;49.594;8.734;2023-08-06T12:32:35;15.90;99.90
34574;DHT22;20809;49.594;8.734;2023-08-06T12:35:36;15.90;99.90
34574;DHT22;20809;49.594;8.734;2023-08-06T12:38:38;15.90;99.90
34574;DHT22;20809;49.594;8.734;2023-08-06T12:41:39;15.90;99.90
34574;DHT22;20809;49.594;8.734;2023-08-06T12:44:39;15.90;99.90
34574;DHT22;20809;49.594;8.734;2023-08-06T12:47:40;15.80;99.90
34574;DHT22;20809;49.594;8.734;2023-08-06T12:50:41;15.80;99.90
34574;DHT22;20809;49.594;8.734;2023-08-06T12:53:42;15.90;99.90
34574;DHT22;20809;49.594;8.734;2023-08-06T12:56:43;15.90;99.90
34574;DHT22;20809;49.594;8.734;2023-08-06T12:59:43;16.00;99.90
34574;DHT22;20809;49.594;8.734;2023-08-06T13:02:44;15.90;99.90
34574;DHT22;20809;49.594;8.734;2023-08-06T13:05:45;15.90;99.90
34574;DHT22;20809;49.594;8.734;2023-08-06T13:08:45;15.80;99.90
34574;DHT22;20809;49.594;8.734;2023-08-06T13:11:47;15.80;99.90
34574;DHT22;20809;49.594;8.734;2023-08-06T13:14:50;15.80;99.90
34574;DHT22;20809;49.594;8.734;2023-08-06T13:17:51;15.90;99.90
34574;DHT22;20809;49.594;8.734;2023-08-06T13:20:53;15.90;99.90
34574;DHT22;20809;49.594;8.734;2023-08-06T13:23:54;15.70;99.90
34574;DHT22;20809;49.594;8.734;2023-08-06T13:26:55;15.50;99.90
34574;DHT22;20809;49.594;8.734;2023-08-06T13:29:56;15.60;99.90
34574;DHT22;20809;49.594;8.734;2023-08-06T13:32:56;15.60;99.90
34574;DHT22;20809;49.594;8.734;2023-08-06T13:35:57;15.80;99.90
34574;DHT22;20809;49.594;8.734;2023-08-06T13:38:58;15.80;99.90
34574;DHT22;20809;49.594;8.734;2023-08-06T13:41:58;15.80;99.90
34574;DHT22;20809;49.594;8.734;2023-08-06T13:44:59;15.80;99.90
34574;DHT22;20809;49.594;8.734;2023-08-06T13:48:04;15.80;99.90
34574;DHT22;20809;49.594;8.734;2023-08-06T13:51:06;15.90;99.90
34574;DHT22;20809;49.594;8.734;2023-08-06T13:54:07;15.90;99.90
34574;DHT22;20809;49.594;8.734;2023-08-06T13:57:08;16.00;99.90
34574;DHT22;20809;49.594;8.734;2023-08-06T14:00:09;16.20;99.90
34574;DHT22;20809;49.594;8.734;2023-08-06T14:03:10;16.30;99.90
34574;DHT22;20809;49.594;8.734;2023-08-06T14:06:10;16.30;99.90
34574;DHT22;20809;49.594;8.734;2023-08-06T14:09:11;16.40;99.90
34574;DHT22;20809;49.594;8.734;2023-08-06T14:12:14;16.50;99.90
34574;DHT22;20809;49.594;8.734;2023-08-06T14:15:15;16.40;99.90
34574;DHT22;20809;49.594;8.734;2023-08-06T14:18:16;16.30;99.90
34574;DHT22;20809;49.594;8.734;2023-08-06T14:21:17;16.30;99.90
34574;DHT22;20809;49.594;8.734;2023-08-06T14:24:18;16.50;99.90
34574;DHT22;20809;49.594;8.734;2023-08-06T14:27:18;16.50;99.90
34574;DHT22;20809;49.594;8.734;2023-08-06T14:30:19;16.60;99.90
34574;DHT22;20809;49.594;8.734;2023-08-06T14:33:20;16.50;99.90
34574;DHT22;20809;49.594;8.734;2023-08-06T14:36:20;16.50;99.90
34574;DHT22;20809;49.594;8.734;2023-08-06T14:39:21;16.50;99.90
34574;DHT22;20809;49.594;8.734;2023-08-06T14:42:22;16.50;99.90
34574;DHT22;20809;49.594;8.734;2023-08-06T14:45:22;16.40;99.90
34574;DHT22;20809;49.594;8.734;2023-08-06T14:48:23;16.30;99.90
34574;DHT22;20809;49.594;8.734;2023-08-06T14:51:23;16.10;99.90
34574;DHT22;20809;49.594;8.734;2023-08-06T14:54:24;15.90;99.90
34574;DHT22;20809;49.594;8.734;2023-08-06T14:57:25;15.90;99.90
34574;DHT22;20809;49.594;8.734;2023-08-06T15:00:28;16.00;99.90
34574;DHT22;20809;49.594;8.734;2023-08-06T15:03:28;15.90;99.90
34574;DHT22;20809;49.594;8.734;2023-08-06T15:06:31;15.90;99.90
34574;DHT22;20809;49.594;8.734;2023-08-06T15:09:32;15.90;99.90
34574;DHT22;20809;49.594;8.734;2023-08-06T15:12:32;15.90;99.90
34574;DHT22;20809;49.594;8.734;2023-08-06T15:15:33;15.80;99.90
34574;DHT22;20809;49.594;8.734;2023-08-06T15:18:34;15.80;99.90
34574;DHT22;20809;49.594;8.734;2023-08-06T15:21:34;15.70;99.90
34574;DHT22;20809;49.594;8.734;2023-08-06T15:24:35;15.80;99.90
34574;DHT22;20809;49.594;8.734;2023-08-06T15:27:42;15.60;99.90
34574;DHT22;20809;49.594;8.734;2023-08-06T15:30:50;15.60;99.90
34574;DHT22;20809;49.594;8.734;2023-08-06T15:33:51;15.50;99.90
34574;DHT22;20809;49.594;8.734;2023-08-06T15:36:52;15.40;99.90
34574;DHT22;20809;49.594;8.734;2023-08-06T15:39:52;15.30;99.90
34574;DHT22;20809;49.594;8.734;2023-08-06T15:42:53;15.20;99.90
34574;DHT22;20809;49.594;8.734;2023-08-06T15:45:54;15.20;99.90
34574;DHT22;20809;49.594;8.734;2023-08-06T15:48:54;15.30;99.90
34574;DHT22;20809;49.594;8.734;2023-08-06T15:51:55;15.30;99.90
34574;DHT22;20809;49.594;8.734;2023-08-06T15:54:55;15.40;99.90
34574;DHT22;20809;49.594;8.734;2023-08-06T15:57:59;15.40;99.90
34574;DHT22;20809;49.594;8.734;2023-08-06T16:01:00;15.30;99.90
34574;DHT22;20809;49.594;8.734;2023-08-06T16:04:00;15.20;99.90
34574;DHT22;20809;49.594;8.734;2023-08-06T16:07:01;15.10;99.90
34574;DHT22;20809;49.594;8.734;2023-08-06T16:10:02;15.00;99.90
34574;DHT22;20809;49.594;8.734;2023-08-06T16:13:02;14.90;99.90
34574;DHT22;20809;49.594;8.734;2023-08-06T16:16:06;14.80;99.90
34574;DHT22;20809;49.594;8.734;2023-08-06T16:19:06;14.70;99.90
34574;DHT22;20809;49.594;8.734;2023-08-06T16:22:07;14.70;99.90
34574;DHT22;20809;49.594;8.734;2023-08-06T16:25:08;14.70;99.90
34574;DHT22;20809;49.594;8.734;2023-08-06T16:28:12;14.60;99.90
34574;DHT22;20809;49.594;8.734;2023-08-06T16:31:13;14.50;99.90
34574;DHT22;20809;49.594;8.734;2023-08-06T16:34:14;14.40;99.90
34574;DHT22;20809;49.594;8.734;2023-08-06T16:37:14;14.30;99.90
34574;DHT22;20809;49.594;8.734;2023-08-06T16:40:15;14.40;99.90
34574;DHT22;20809;49.594;8.734;2023-08-06T16:43:16;14.40;99.90
34574;DHT22;20809;49.594;8.734;2023-08-06T16:46:17;14.50;99.90
34574;DHT22;20809;49.594;8.734;2023-08-06T16:49:17;14.50;99.90
34574;DHT22;20809;49.594;8.734;2023-08-06T16:52:18;14.50;99.90
34574;DHT22;20809;49.594;8.734;2023-08-06T16:55:22;14.40;99.90
34574;DHT22;20809;49.594;8.734;2023-08-06T16:58:23;14.40;99.90
34574;DHT22;20809;49.594;8.734;2023-08-06T17:01:23;14.40;99.90
34574;DHT22;20809;49.594;8.734;2023-08-06T17:04:24;14.30;99.90
34574;DHT22;20809;49.594;8.734;2023-08-06T17:07:25;14.30;99.90
34574;DHT22;20809;49.594;8.734;2023-08-06T17:10:25;14.30;99.90
34574;DHT22;20809;49.594;8.734;2023-08-06T17:13:26;14.20;99.90
34574;DHT22;20809;49.594;8.734;2023-08-06T17:16:26;14.20;99.90
34574;DHT22;20809;49.594;8.734;2023-08-06T17:19:27;14.10;99.90
34574;DHT22;20809;49.594;8.734;2023-08-06T17:22:28;14.00;99.90
34574;DHT22;20809;49.594;8.734;2023-08-06T17:25:31;14.00;99.90
34574;DHT22;20809;49.594;8.734;2023-08-06T17:28:31;14.00;99.90
34574;DHT22;20809;49.594;8.734;2023-08-06T17:31:32;13.90;99.90
34574;DHT22;20809;49.594;8.734;2023-08-06T17:34:33;14.00;99.90
34574;DHT22;20809;49.594;8.734;2023-08-06T17:37:33;14.00;99.90
34574;DHT22;20809;49.594;8.734;2023-08-06T17:40:34;14.00;99.90
34574;DHT22;20809;49.594;8.734;2023-08-06T17:43:34;14.00;99.90
34574;DHT22;20809;49.594;8.734;2023-08-06T17:46:35;14.00;99.90
34574;DHT22;20809;49.594;8.734;2023-08-06T17:49:36;14.00;99.90
34574;DHT22;20809;49.594;8.734;2023-08-06T17:52:37;14.00;99.90
34574;DHT22;20809;49.594;8.734;2023-08-06T17:55:37;14.00;99.90
34574;DHT22;20809;49.594;8.734;2023-08-06T17:58:38;14.00;99.90
34574;DHT22;20809;49.594;8.734;2023-08-06T18:01:39;13.90;99.90
34574;DHT22;20809;49.594;8.734;2023-08-06T18:04:39;13.90;99.90
34574;DHT22;20809;49.594;8.734;2023-08-06T18:07:42;13.90;99.90
34574;DHT22;20809;49.594;8.734;2023-08-06T18:10:43;13.90;99.90
34574;DHT22;20809;49.594;8.734;2023-08-06T18:13:44;13.90;99.90
34574;DHT22;20809;49.594;8.734;2023-08-06T18:16:44;14.00;99.90
34574;DHT22;20809;49.594;8.734;2023-08-06T18:19:45;14.00;99.90
34574;DHT22;20809;49.594;8.734;2023-08-06T18:22:46;13.90;99.90
34574;DHT22;20809;49.594;8.734;2023-08-06T18:25:46;14.00;99.90
34574;DHT22;20809;49.594;8.734;2023-08-06T18:28:47;13.90;99.90
34574;DHT22;20809;49.594;8.734;2023-08-06T18:31:48;13.90;99.90
34574;DHT22;20809;49.594;8.734;2023-08-06T18:34:48;13.90;99.90
34574;DHT22;20809;49.594;8.734;2023-08-06T18:37:49;13.90;99.90
34574;DHT22;20809;49.594;8.734;2023-08-06T18:40:59;13.90;99.90
34574;DHT22;20809;49.594;8.734;2023-08-06T18:44:00;13.90;99.90
34574;DHT22;20809;49.594;8.734;2023-08-06T18:47:01;13.90;99.90
34574;DHT22;20809;49.594;8.734;2023-08-06T18:50:02;13.90;99.90
34574;DHT22;20809;49.594;8.734;2023-08-06T18:53:03;13.90;99.90
34574;DHT22;20809;49.594;8.734;2023-08-06T18:56:08;13.90;99.90
34574;DHT22;20809;49.594;8.734;2023-08-06T18:59:10;13.90;99.90
34574;DHT22;20809;49.594;8.734;2023-08-06T19:02:12;13.80;99.90
34574;DHT22;20809;49.594;8.734;2023-08-06T19:05:16;13.90;99.90
34574;DHT22;20809;49.594;8.734;2023-08-06T19:08:18;13.90;99.90
34574;DHT22;20809;49.594;8.734;2023-08-06T19:11:21;13.90;99.90
34574;DHT22;20809;49.594;8.734;2023-08-06T19:14:28;13.90;99.90
34574;DHT22;20809;49.594;8.734;2023-08-06T19:17:29;13.90;99.90
34574;DHT22;20809;49.594;8.734;2023-08-06T19:20:31;13.90;99.90